Terminal Aerodrome Forecast
Issued by NWS Duluth, MN

Home | Current Version | Previous Version | Text Only | Print | Product List | Glossary On
Versions: 1 2 3 4 5 6 7 8 9 10 11 12 13 14 15 16 17 18 19 20 21 22 23 24
000
FTUS43 KDLH 291121
TAFDLH
TAF
KDLH 291121Z 2912/3012 08012KT P6SM FEW120
     FM291800 08008G18KT P6SM SCT050 BKN150
     FM300200 08008KT P6SM BKN050 OVC150
     FM300500 08006KT P6SM BKN030
     FM300700 08005KT 6SM BR BKN015
     FM301100 08005KT 2SM BR BKN010=

USA.gov is the U.S. government's official web portal to all federal, state and local government web resources and services.